createdAt,value
2022-11-20T00:04:30.159Z,17.22
2022-11-20T00:09:32.414Z,17.18
2022-11-20T00:14:34.694Z,17.31
2022-11-20T00:19:36.890Z,17.49
2022-11-20T00:24:43.035Z,17.56
2022-11-20T00:29:45.588Z,17.39
2022-11-20T00:34:47.759Z,17.46
2022-11-20T00:39:49.775Z,17.10
2022-11-20T00:44:51.936Z,17.08
2022-11-20T00:49:54.144Z,16.91
2022-11-20T00:54:56.256Z,16.78
2022-11-20T00:59:58.305Z,16.95
2022-11-20T01:05:00.496Z,16.92
2022-11-20T01:10:02.689Z,17.18
2022-11-20T01:15:05.344Z,17.22
2022-11-20T01:20:09.168Z,17.03
2022-11-20T01:25:16.073Z,17.19
2022-11-20T01:30:18.285Z,17.21
2022-11-20T01:35:21.410Z,17.10
2022-11-20T01:40:23.650Z,16.90
2022-11-20T01:45:57.542Z,16.93
2022-11-20T01:51:00.681Z,16.68
2022-11-20T01:56:07.065Z,16.57
2022-11-20T02:01:10.005Z,16.49
2022-11-20T02:06:25.267Z,16.43
2022-11-20T02:11:27.503Z,16.77
2022-11-20T02:16:38.274Z,17.22
2022-11-20T02:21:46.634Z,17.32
2022-11-20T02:26:54.502Z,17.37
2022-11-20T02:31:59.265Z,17.21
2022-11-20T02:37:01.787Z,17.35
2022-11-20T02:42:03.981Z,17.47
2022-11-20T02:47:06.074Z,17.37
2022-11-20T02:52:08.275Z,17.71
2022-11-20T02:57:10.479Z,17.59
2022-11-20T03:02:12.906Z,17.69
2022-11-20T03:07:15.034Z,17.75
2022-11-20T03:12:17.105Z,17.46
2022-11-20T03:17:19.346Z,17.53
2022-11-20T03:22:21.615Z,17.49
2022-11-20T03:27:23.877Z,17.46
2022-11-20T03:32:26.179Z,17.50
2022-11-20T03:37:28.252Z,17.56
2022-11-20T03:42:48.735Z,17.57
2022-11-20T03:47:51.048Z,17.17
2022-11-20T03:52:53.130Z,16.96
2022-11-20T03:57:55.281Z,17.45
2022-11-20T04:03:01.594Z,17.41
2022-11-20T04:08:04.039Z,17.33
2022-11-20T04:13:06.316Z,17.25
2022-11-20T04:18:08.465Z,17.38
2022-11-20T04:23:10.556Z,17.25
2022-11-20T04:28:12.908Z,17.02
2022-11-20T04:33:15.141Z,17.10
2022-11-20T04:38:17.489Z,17.23
2022-11-20T04:43:19.540Z,17.25
2022-11-20T04:48:21.812Z,17.17
2022-11-20T04:53:25.272Z,16.77
2022-11-20T04:58:27.471Z,16.49
2022-11-20T05:03:29.570Z,16.41
2022-11-20T05:08:32.914Z,16.69
2022-11-20T05:13:35.764Z,16.74
2022-11-20T05:18:38.736Z,16.98
2022-11-20T05:23:42.021Z,17.13
2022-11-20T05:28:44.399Z,17.06
2022-11-20T05:33:47.000Z,17.11
2022-11-20T05:38:51.190Z,17.08
2022-11-20T05:43:53.868Z,16.98
2022-11-20T05:48:56.204Z,17.08
2022-11-20T05:53:59.738Z,17.07
2022-11-20T05:59:02.038Z,17.22
2022-11-20T06:04:04.193Z,17.13
2022-11-20T06:09:06.391Z,17.18
2022-11-20T06:14:08.656Z,17.21
2022-11-20T06:19:10.927Z,17.22
2022-11-20T06:24:13.428Z,17.30
2022-11-20T06:29:15.522Z,17.23
2022-11-20T06:34:17.709Z,17.36
2022-11-20T06:39:24.155Z,17.46
2022-11-20T06:44:26.846Z,17.45
2022-11-20T06:49:28.929Z,17.72
2022-11-20T06:54:31.001Z,17.72
2022-11-20T06:59:33.192Z,17.97
2022-11-20T07:04:35.231Z,18.13
2022-11-20T07:09:37.344Z,19.72
2022-11-20T07:14:39.488Z,19.66
2022-11-20T07:19:41.727Z,19.53
2022-11-20T07:24:46.114Z,19.07
2022-11-20T07:29:48.690Z,19.16
2022-11-20T07:34:50.789Z,18.97
2022-11-20T07:39:53.160Z,18.59
2022-11-20T07:44:55.498Z,18.91
2022-11-20T07:49:57.837Z,20.39
2022-11-20T07:55:00.191Z,21.83
2022-11-20T08:00:02.528Z,23.02
2022-11-20T08:05:14.217Z,23.69
2022-11-20T08:10:17.486Z,23.85
2022-11-20T08:15:19.840Z,23.85
2022-11-20T08:20:22.158Z,23.13
2022-11-20T08:25:24.464Z,22.61
2022-11-20T08:30:27.513Z,22.82
2022-11-20T08:35:29.943Z,22.49
2022-11-20T08:40:32.709Z,22.53
2022-11-20T08:45:35.566Z,22.07
2022-11-20T08:50:37.844Z,21.95
2022-11-20T08:55:40.864Z,21.83
2022-11-20T09:00:43.134Z,22.47
2022-11-20T09:05:45.359Z,22.31
2022-11-20T09:10:52.251Z,22.58
2022-11-20T09:16:02.912Z,22.42
2022-11-20T09:21:11.495Z,21.78
2022-11-20T09:26:15.202Z,22.14
2022-11-20T09:31:27.101Z,21.58
2022-11-20T09:36:29.542Z,21.05
2022-11-20T09:41:40.426Z,20.79
2022-11-20T09:46:54.710Z,21.40
2022-11-20T09:52:02.264Z,21.82
2022-11-20T09:57:13.910Z,21.25
2022-11-20T10:02:28.155Z,21.51
2022-11-20T10:07:44.449Z,20.90
2022-11-20T10:12:58.776Z,21.57
2022-11-20T10:18:03.834Z,21.52
2022-11-20T10:23:44.869Z,21.82
2022-11-20T10:29:08.942Z,22.37
2022-11-20T10:34:44.813Z,21.44
2022-11-20T10:39:59.109Z,22.05
2022-11-20T10:45:26.945Z,22.38
2022-11-20T10:50:32.172Z,21.95
2022-11-20T10:55:55.722Z,21.40
2022-11-20T11:01:18.020Z,21.14
2022-11-20T11:06:27.513Z,21.21
2022-11-20T11:11:36.229Z,20.91
2022-11-20T11:16:54.530Z,21.03
2022-11-20T11:21:58.140Z,21.11
2022-11-20T11:27:16.424Z,20.75
2022-11-20T11:32:22.611Z,20.61
2022-11-20T11:37:25.707Z,20.88
2022-11-20T11:42:29.437Z,20.74
2022-11-20T11:47:43.984Z,20.81
2022-11-20T11:53:03.791Z,20.92
2022-11-20T11:58:25.970Z,20.67
2022-11-20T12:04:12.177Z,20.80
2022-11-20T12:09:14.811Z,20.76
2022-11-20T12:14:27.917Z,20.89
2022-11-20T12:19:35.836Z,20.64
2022-11-20T12:24:54.504Z,20.75
2022-11-20T12:30:12.837Z,20.72
2022-11-20T12:35:33.793Z,20.60
2022-11-20T12:40:39.012Z,18.80
2022-11-20T12:45:59.673Z,17.32
2022-11-20T12:51:40.366Z,16.75
2022-11-20T12:56:48.704Z,15.33
2022-11-20T13:02:17.784Z,14.22
2022-11-20T13:07:22.810Z,13.31
2022-11-20T13:12:35.240Z,12.64
2022-11-20T13:18:02.288Z,12.47
2022-11-20T13:23:05.278Z,12.57
2022-11-20T13:28:13.697Z,12.73
2022-11-20T13:33:30.973Z,12.41
2022-11-20T13:38:48.657Z,12.05
2022-11-20T13:43:51.482Z,11.98
2022-11-20T13:48:55.556Z,11.87
2022-11-20T13:54:16.354Z,12.29
2022-11-20T13:59:27.464Z,12.28
2022-11-20T14:04:39.430Z,12.25
2022-11-20T14:09:57.875Z,11.66
2022-11-20T14:15:00.818Z,11.36
2022-11-20T14:20:13.838Z,11.45
2022-11-20T14:25:16.845Z,11.68
2022-11-20T14:30:22.525Z,11.64
2022-11-20T14:35:29.411Z,11.55
2022-11-20T14:40:39.347Z,11.41
2022-11-20T14:45:41.840Z,11.18
2022-11-20T14:50:44.104Z,11.11
2022-11-20T14:56:04.627Z,10.83
2022-11-20T15:01:08.821Z,10.77
2022-11-20T15:06:13.991Z,10.78
2022-11-20T15:11:24.975Z,10.75
2022-11-20T15:16:29.066Z,10.48
2022-11-20T15:21:31.274Z,10.69
2022-11-20T15:26:35.060Z,10.59
2022-11-20T15:31:42.696Z,10.38
2022-11-20T15:36:45.451Z,10.26
2022-11-20T15:41:48.235Z,10.26
2022-11-20T15:46:50.426Z,10.30
2022-11-20T15:51:54.051Z,10.24
2022-11-20T15:56:56.371Z,10.46
2022-11-20T16:01:58.731Z,10.50
2022-11-20T16:07:01.050Z,10.53
2022-11-20T16:12:03.594Z,10.44
2022-11-20T16:17:05.879Z,10.50
2022-11-20T16:22:07.898Z,10.56
2022-11-20T16:27:11.646Z,10.64
2022-11-20T16:32:13.932Z,10.94
2022-11-20T16:37:16.294Z,11.15
2022-11-20T16:42:18.448Z,11.40
2022-11-20T16:47:20.976Z,11.58
2022-11-20T16:52:24.485Z,11.65
2022-11-20T16:57:30.005Z,11.60
2022-11-20T17:02:32.410Z,11.73
2022-11-20T17:07:34.784Z,11.57
2022-11-20T17:12:36.976Z,11.20
2022-11-20T17:17:39.290Z,11.91
2022-11-20T17:22:41.485Z,12.26
2022-11-20T17:27:43.615Z,11.75
2022-11-20T17:32:47.217Z,10.85
2022-11-20T17:37:49.487Z,10.86
2022-11-20T17:42:51.776Z,10.80
2022-11-20T17:47:54.094Z,10.97
2022-11-20T17:52:56.398Z,11.16
2022-11-20T17:58:03.041Z,11.00
2022-11-20T18:03:05.566Z,10.87
2022-11-20T18:08:07.656Z,10.86
2022-11-20T18:13:09.760Z,10.74
2022-11-20T18:18:12.058Z,10.77
2022-11-20T18:23:14.359Z,10.67
2022-11-20T18:28:16.448Z,10.82
2022-11-20T18:33:18.892Z,10.90
2022-11-20T18:38:21.096Z,10.44
2022-11-20T18:43:41.879Z,10.69
2022-11-20T18:48:44.184Z,10.49
2022-11-20T18:53:47.666Z,10.28
2022-11-20T18:58:49.980Z,10.16
2022-11-20T19:03:52.299Z,10.37
2022-11-20T19:08:54.555Z,10.29
2022-11-20T19:13:56.800Z,10.48
2022-11-20T19:19:06.423Z,10.05
2022-11-20T19:24:09.427Z,9.99
2022-11-20T19:29:14.696Z,10.34
2022-11-20T19:39:37.341Z,9.89
2022-11-20T19:44:39.584Z,9.86
2022-11-20T19:49:42.356Z,9.69
2022-11-20T19:54:44.446Z,9.68
2022-11-20T19:59:46.685Z,9.60
2022-11-20T20:04:48.920Z,9.60
2022-11-20T20:09:51.021Z,9.69
2022-11-20T20:14:53.492Z,9.49
2022-11-20T20:19:55.747Z,9.59
2022-11-20T20:24:57.809Z,9.48
2022-11-20T20:29:59.970Z,9.38
2022-11-20T20:35:02.676Z,9.38
2022-11-20T20:40:05.550Z,9.49
2022-11-20T20:45:08.271Z,9.62
2022-11-20T20:50:12.478Z,9.56
2022-11-20T20:55:17.769Z,9.42
2022-11-20T21:00:20.139Z,9.52
2022-11-20T21:05:22.272Z,9.61
2022-11-20T21:10:24.721Z,9.67
2022-11-20T21:15:26.947Z,9.70
2022-11-20T21:20:47.559Z,9.77
2022-11-20T21:25:49.813Z,9.75
2022-11-20T21:30:52.043Z,9.30
2022-11-20T21:35:54.314Z,9.61
2022-11-20T21:40:59.885Z,9.83
2022-11-20T21:46:06.889Z,9.48
2022-11-20T21:51:12.185Z,9.71
2022-11-20T21:56:20.099Z,9.75
2022-11-20T22:01:25.895Z,9.58
2022-11-20T22:06:32.945Z,9.97
2022-11-20T22:11:35.211Z,9.62
2022-11-20T22:16:38.257Z,9.52
2022-11-20T22:21:41.929Z,9.83
2022-11-20T22:26:44.560Z,9.83
2022-11-20T22:31:48.033Z,9.76
2022-11-20T22:36:50.217Z,9.77
2022-11-20T22:41:52.274Z,9.64
2022-11-20T22:46:54.440Z,9.85
2022-11-20T22:51:56.567Z,10.32
2022-11-20T22:56:58.624Z,10.97
2022-11-20T23:02:00.661Z,11.58
2022-11-20T23:07:03.033Z,11.48
2022-11-20T23:12:05.628Z,11.99
2022-11-20T23:17:07.740Z,12.07
2022-11-20T23:22:09.842Z,12.15
2022-11-20T23:27:12.057Z,12.42
2022-11-20T23:32:14.340Z,12.50
2022-11-20T23:37:16.630Z,13.14
2022-11-20T23:42:19.319Z,13.70
2022-11-20T23:47:21.422Z,14.39
2022-11-20T23:52:25.140Z,13.96
2022-11-20T23:57:27.337Z,14.04
